Time;durP1;ratioP1;P1;durP2;ratioP2;P2;SDS_P1;SDS_P2;PMS_P1;PMS_P2;Temp;Humidity;BMP_temperature;BMP_pressure;BME280_temperature;BME280_humidity;BME280_pressure;Samples;Min_cycle;Max_cycle;Signal;HPM_P1;HPM_P2
2022/07/31 00:01:14;;;;;;;3.60;2.97;;;24.50;54.60;;;;;;5031256;28;20049;-45
2022/07/31 00:03:41;;;;;;;4.32;3.38;;;24.50;54.60;;;;;;5029579;28;20041;-49
2022/07/31 00:06:08;;;;;;;4.35;3.50;;;24.40;54.50;;;;;;5032824;28;20514;-47
2022/07/31 00:08:37;;;;;;;3.40;3.10;;;24.40;54.30;;;;;;5033096;28;20049;-46
2022/07/31 00:11:04;;;;;;;3.35;2.58;;;24.40;54.70;;;;;;5028446;28;20076;-45
2022/07/31 00:13:31;;;;;;;2.88;2.67;;;24.40;54.50;;;;;;5029798;28;20038;-43
2022/07/31 00:16:18;;;;;;;2.97;2.67;;;24.30;54.40;;;;;;5032788;28;20525;-47
2022/07/31 00:18:48;;;;;;;4.03;2.72;;;24.30;54.30;;;;;;5033093;28;20045;-45
2022/07/31 00:21:18;;;;;;;3.10;2.70;;;24.30;54.30;;;;;;5030808;28;20041;-48
2022/07/31 00:23:45;;;;;;;2.92;2.67;;;24.20;54.30;;;;;;5028308;28;20049;-46
2022/07/31 00:26:15;;;;;;;2.75;2.55;;;24.20;54.20;;;;;;5032241;28;20057;-45
2022/07/31 00:28:42;;;;;;;4.10;2.70;;;24.20;54.20;;;;;;5033070;28;20050;-48
2022/07/31 00:31:09;;;;;;;3.45;3.15;;;24.10;54.10;;;;;;5025318;28;20395;-50
2022/07/31 00:33:36;;;;;;;7.18;2.97;;;24.10;53.80;;;;;;5032707;28;20034;-46
2022/07/31 00:36:03;;;;;;;3.00;2.80;;;24.00;53.80;;;;;;5011165;28;20572;-45
2022/07/31 00:38:35;;;;;;;4.13;2.67;;;24.00;54.00;;;;;;5032503;28;20045;-45
2022/07/31 00:41:04;;;;;;;3.22;2.60;;;24.00;54.10;;;;;;5014850;28;20072;-49
2022/07/31 00:43:35;;;;;;;2.83;2.60;;;23.90;54.00;;;;;;5027747;28;20041;-45
2022/07/31 00:46:06;;;;;;;3.33;2.78;;;23.90;54.20;;;;;;5013687;28;20061;-44
2022/07/31 00:48:40;;;;;;;2.70;2.50;;;23.80;54.00;;;;;;5032744;28;20506;-46
2022/07/31 00:51:09;;;;;;;3.50;2.58;;;23.80;54.10;;;;;;5009004;28;20451;-45
2022/07/31 00:53:37;;;;;;;5.90;2.80;;;23.80;54.20;;;;;;5014751;28;20042;-46
2022/07/31 00:56:04;;;;;;;4.13;2.58;;;23.70;54.30;;;;;;5014062;28;20045;-43
2022/07/31 00:58:31;;;;;;;3.47;2.67;;;23.70;54.30;;;;;;5009855;28;20092;-45
2022/07/31 01:00:57;;;;;;;2.50;2.30;;;23.70;54.40;;;;;;5012853;28;20517;-44
2022/07/31 01:03:27;;;;;;;3.15;2.38;;;23.70;54.40;;;;;;5014714;28;20084;-44
2022/07/31 01:05:56;;;;;;;4.38;2.53;;;23.70;54.60;;;;;;5031981;28;20052;-45
2022/07/31 01:08:28;;;;;;;3.50;2.30;;;23.70;54.20;;;;;;5005051;28;20469;-44
2022/07/31 01:11:14;;;;;;;4.32;2.90;;;23.70;54.60;;;;;;5011370;28;20041;-45
2022/07/31 01:13:52;;;;;;;2.58;2.38;;;23.70;54.90;;;;;;5014252;28;20076;-48
2022/07/31 01:16:26;;;;;;;3.08;2.65;;;23.70;54.60;;;;;;5031806;28;20056;-48
2022/07/31 01:18:55;;;;;;;4.72;3.00;;;23.70;54.60;;;;;;5009738;28;20045;-48
2022/07/31 01:21:30;;;;;;;2.70;2.50;;;23.70;54.80;;;;;;5005036;28;20049;-47
2022/07/31 01:24:29;;;;;;;3.22;2.35;;;23.70;54.90;;;;;;5014810;28;20433;-44
2022/07/31 01:27:42;;;;;;;3.42;2.47;;;23.70;54.10;;;;;;5012046;28;20137;-48
2022/07/31 01:30:20;;;;;;;2.00;1.80;;;23.70;54.30;;;;;;5013687;28;20136;-43
2022/07/31 01:33:09;;;;;;;4.47;2.53;;;23.70;52.80;;;;;;5013598;28;20133;-45
2022/07/31 01:35:42;;;;;;;3.85;2.33;;;23.70;53.20;;;;;;5013297;28;20042;-45
2022/07/31 01:38:23;;;;;;;2.30;2.13;;;23.70;53.20;;;;;;5009747;28;20041;-45
2022/07/31 01:41:00;;;;;;;3.50;2.28;;;23.70;53.80;;;;;;5009776;28;20038;-47
2022/07/31 01:43:34;;;;;;;2.95;2.63;;;23.70;53.40;;;;;;4994272;28;20046;-44
2022/07/31 01:46:03;;;;;;;5.03;2.75;;;23.80;53.40;;;;;;5015176;28;20034;-46
2022/07/31 01:48:36;;;;;;;3.08;2.80;;;23.70;52.90;;;;;;5013904;28;20517;-44
2022/07/31 01:51:05;;;;;;;3.78;2.75;;;23.70;52.60;;;;;;5013472;28;20042;-45
2022/07/31 01:53:33;;;;;;;5.65;2.88;;;23.70;53.00;;;;;;5011208;28;20045;-46
2022/07/31 01:56:01;;;;;;;4.30;2.58;;;23.70;53.20;;;;;;5008050;28;20038;-45
2022/07/31 01:58:37;;;;;;;2.70;2.50;;;23.70;53.40;;;;;;5013488;28;20045;-45
2022/07/31 02:01:19;;;;;;;5.07;2.55;;;23.70;53.30;;;;;;5013594;28;20049;-45
2022/07/31 02:03:54;;;;;;;2.55;2.35;;;23.80;53.50;;;;;;5008666;28;20586;-46
2022/07/31 02:06:24;;;;;;;3.40;2.70;;;23.70;53.50;;;;;;5024042;28;20045;-46
2022/07/31 02:08:55;;;;;;;3.00;2.70;;;23.70;54.30;;;;;;5031024;28;20049;-45
2022/07/31 02:11:23;;;;;;;3.17;2.75;;;23.70;53.80;;;;;;5013205;28;20145;-47
2022/07/31 02:13:55;;;;;;;2.65;2.42;;;23.60;53.50;;;;;;5009199;28;20045;-50
2022/07/31 02:16:23;;;;;;;3.83;2.97;;;23.60;53.40;;;;;;5005340;28;20061;-50
2022/07/31 02:18:59;;;;;;;3.42;3.15;;;23.60;53.20;;;;;;5012940;28;20095;-45
2022/07/31 02:21:29;;;;;;;3.58;2.97;;;23.60;53.20;;;;;;5010961;28;20402;-44
2022/07/31 02:23:59;;;;;;;3.45;2.88;;;23.60;53.70;;;;;;5005015;28;20041;-46
2022/07/31 02:26:27;;;;;;;3.03;2.83;;;23.60;53.90;;;;;;5030583;28;20033;-46
2022/07/31 02:28:55;;;;;;;4.43;3.03;;;23.60;54.00;;;;;;5013216;28;20048;-50
2022/07/31 02:31:27;;;;;;;3.08;2.80;;;23.60;53.50;;;;;;5010456;28;20068;-44
2022/07/31 02:33:54;;;;;;;4.18;3.00;;;23.60;53.30;;;;;;5005423;28;20046;-47
2022/07/31 02:36:31;;;;;;;3.90;2.97;;;23.60;53.20;;;;;;5012435;28;20199;-49
2022/07/31 02:39:02;;;;;;;3.95;2.45;;;23.60;52.50;;;;;;5013191;28;20112;-49
2022/07/31 02:41:30;;;;;;;4.00;3.00;;;23.60;52.90;;;;;;5007648;28;20136;-44
2022/07/31 02:43:57;;;;;;;4.63;3.75;;;23.60;52.50;;;;;;5006401;28;20052;-45
2022/07/31 02:46:26;;;;;;;3.17;2.92;;;23.60;52.40;;;;;;5029998;28;20037;-45
2022/07/31 02:48:55;;;;;;;4.30;3.88;;;23.60;52.20;;;;;;5012901;28;20053;-45
2022/07/31 02:51:24;;;;;;;4.80;3.80;;;23.60;52.00;;;;;;4991646;28;20056;-47
2022/07/31 02:53:53;;;;;;;6.38;4.00;;;23.60;51.70;;;;;;5012705;28;20502;-44
2022/07/31 02:56:23;;;;;;;4.18;2.90;;;23.60;51.80;;;;;;5004595;28;20502;-45
2022/07/31 02:58:51;;;;;;;7.32;3.17;;;23.60;51.70;;;;;;5029515;28;20724;-46
2022/07/31 03:01:28;;;;;;;5.38;2.72;;;23.60;51.70;;;;;;5021361;28;20053;-44
2022/07/31 03:03:56;;;;;;;4.72;3.30;;;23.60;51.70;;;;;;5012454;28;20115;-44
2022/07/31 03:06:23;;;;;;;4.47;3.60;;;23.60;51.60;;;;;;5012274;28;20049;-45
2022/07/31 03:08:50;;;;;;;5.68;3.58;;;23.60;51.90;;;;;;5005873;28;20065;-47
2022/07/31 03:11:22;;;;;;;4.00;3.65;;;23.60;51.90;;;;;;5004730;28;20046;-44
2022/07/31 03:13:53;;;;;;;4.55;3.45;;;23.60;51.90;;;;;;5012179;28;20130;-48
2022/07/31 03:16:24;;;;;;;6.30;4.25;;;23.60;52.00;;;;;;5010967;28;20066;-45
2022/07/31 03:18:52;;;;;;;4.38;3.53;;;23.50;52.00;;;;;;5009138;28;20042;-46
2022/07/31 03:21:23;;;;;;;4.80;3.85;;;23.50;52.00;;;;;;5011464;28;20042;-45
2022/07/31 03:23:54;;;;;;;3.53;3.20;;;23.50;52.00;;;;;;5012156;28;20051;-48
2022/07/31 03:26:22;;;;;;;3.60;3.25;;;23.50;51.90;;;;;;5009196;28;20069;-49
2022/07/31 03:28:52;;;;;;;3.88;3.45;;;23.40;52.00;;;;;;5028096;28;20121;-47
2022/07/31 03:31:20;;;;;;;4.35;3.95;;;23.40;52.70;;;;;;5011785;28;20042;-44
2022/07/31 03:33:47;;;;;;;4.53;3.53;;;23.40;52.10;;;;;;5011453;28;20041;-49
2022/07/31 03:36:17;;;;;;;4.25;3.85;;;23.40;52.30;;;;;;5018959;23;20056;-50
2022/07/31 03:38:49;;;;;;;4.33;3.93;;;23.40;52.20;;;;;;4990394;28;20038;-46
2022/07/31 03:41:40;;;;;;;4.75;3.80;;;23.40;52.40;;;;;;4989504;28;20289;-49
2022/07/31 03:44:07;;;;;;;5.13;3.47;;;23.40;52.50;;;;;;4975404;28;20064;-46
2022/07/31 03:46:37;;;;;;;6.63;4.20;;;23.40;52.50;;;;;;5002145;28;20042;-48
2022/07/31 03:49:07;;;;;;;4.75;4.25;;;23.30;52.80;;;;;;5029476;28;20045;-48
2022/07/31 03:51:36;;;;;;;5.97;3.88;;;23.40;52.70;;;;;;5014791;28;20050;-47
2022/07/31 03:54:08;;;;;;;6.97;4.10;;;23.30;52.70;;;;;;5012614;28;20042;-50
2022/07/31 03:56:44;;;;;;;4.30;3.85;;;23.30;52.60;;;;;;5023075;28;20049;-48
2022/07/31 03:59:15;;;;;;;4.40;3.58;;;23.30;52.80;;;;;;5014787;28;20461;-48
2022/07/31 04:01:43;;;;;;;5.10;4.43;;;23.30;52.70;;;;;;5010553;28;20045;-48
2022/07/31 04:04:39;;;;;;;4.85;3.95;;;23.30;52.90;;;;;;5012762;28;20064;-46
2022/07/31 04:07:08;;;;;;;4.93;3.63;;;23.30;52.80;;;;;;5031916;28;20477;-46
2022/07/31 04:09:35;;;;;;;4.30;3.83;;;23.30;52.90;;;;;;5002245;28;20046;-47
2022/07/31 04:12:08;;;;;;;3.92;3.55;;;23.30;52.70;;;;;;4996260;28;20129;-48
2022/07/31 04:14:35;;;;;;;4.72;3.60;;;23.30;52.80;;;;;;5022090;28;20375;-49
2022/07/31 04:17:10;;;;;;;3.72;3.42;;;23.30;52.90;;;;;;5014635;28;20793;-47
2022/07/31 04:19:39;;;;;;;4.53;3.45;;;23.20;52.90;;;;;;5027440;28;20482;-49
2022/07/31 04:22:12;;;;;;;3.53;3.22;;;23.30;52.90;;;;;;5014852;28;20144;-47
2022/07/31 04:24:41;;;;;;;4.00;3.33;;;23.20;52.90;;;;;;5008557;28;20128;-47
2022/07/31 04:27:27;;;;;;;3.53;3.05;;;23.20;52.90;;;;;;5000279;28;20053;-46
2022/07/31 04:29:59;;;;;;;6.20;3.22;;;23.20;52.90;;;;;;4999089;28;20049;-46
2022/07/31 04:32:26;;;;;;;3.05;2.67;;;23.20;52.80;;;;;;4996293;28;20046;-45
2022/07/31 04:34:58;;;;;;;7.70;2.78;;;23.20;53.00;;;;;;5012883;28;20037;-48
2022/07/31 04:37:32;;;;;;;4.93;2.42;;;23.20;53.30;;;;;;5015037;28;20068;-48
2022/07/31 04:40:01;;;;;;;4.60;3.05;;;23.20;53.10;;;;;;5007311;28;20501;-49
2022/07/31 04:42:28;;;;;;;2.70;2.35;;;23.20;53.00;;;;;;5033398;28;20044;-49
2022/07/31 04:45:01;;;;;;;3.70;2.90;;;23.20;52.90;;;;;;5009450;28;20046;-52
2022/07/31 04:47:28;;;;;;;2.90;2.13;;;23.20;52.90;;;;;;5026840;28;20049;-49
2022/07/31 04:49:57;;;;;;;2.35;1.77;;;23.20;52.80;;;;;;5007055;28;20111;-49
2022/07/31 04:52:28;;;;;;;2.45;2.25;;;23.20;52.90;;;;;;5033311;28;20041;-46
2022/07/31 04:55:04;;;;;;;2.17;1.90;;;23.20;52.90;;;;;;5010784;28;20406;-46
2022/07/31 04:57:31;;;;;;;2.70;2.05;;;23.20;53.00;;;;;;5024211;28;20037;-48
2022/07/31 04:59:58;;;;;;;4.95;2.45;;;23.20;53.10;;;;;;5015151;28;20501;-49
2022/07/31 05:02:30;;;;;;;;;;;23.10;53.30;;;;;;5012714;28;20061;-49
2022/07/31 05:04:58;;;;;;;3.67;2.55;;;23.20;52.80;;;;;;5006980;28;19963;-45
2022/07/31 05:07:39;;;;;;;3.00;2.00;;;23.20;53.00;;;;;;5015030;28;20049;-46
2022/07/31 05:13:09;;;;;;;2.35;2.08;;;23.20;53.30;;;;;;5028268;28;20045;-49
2022/07/31 05:15:37;;;;;;;2.65;1.90;;;23.20;53.30;;;;;;5026442;28;20469;-48
2022/07/31 05:18:06;;;;;;;2.05;1.85;;;23.20;53.40;;;;;;5012858;28;20092;-49
2022/07/31 05:21:02;;;;;;;2.50;2.03;;;23.20;53.50;;;;;;4993682;28;20098;-47
2022/07/31 05:23:34;;;;;;;3.67;2.17;;;23.30;53.60;;;;;;5028397;28;20361;-49
2022/07/31 05:26:11;;;;;;;2.17;1.90;;;23.30;53.50;;;;;;5023851;28;20033;-46
2022/07/31 05:28:41;;;;;;;3.17;1.85;;;23.30;53.70;;;;;;5014913;28;20049;-49
2022/07/31 05:31:12;;;;;;;3.17;2.22;;;23.40;53.80;;;;;;5013639;28;20045;-50
2022/07/31 05:33:39;;;;;;;2.05;1.83;;;23.30;53.50;;;;;;5032226;28;20041;-50
2022/07/31 05:36:06;;;;;;;2.67;1.75;;;23.30;53.50;;;;;;5023413;28;20041;-46
2022/07/31 05:38:35;;;;;;;2.30;1.77;;;23.30;53.40;;;;;;5014700;28;20075;-46
2022/07/31 05:41:21;;;;;;;3.65;2.50;;;23.30;53.50;;;;;;5027547;28;20047;-46
2022/07/31 05:44:06;;;;;;;3.08;2.38;;;23.40;53.50;;;;;;5024117;28;20048;-46
2022/07/31 05:46:38;;;;;;;1.70;1.37;;;23.40;53.70;;;;;;5004327;28;20037;-48
2022/07/31 05:49:04;;;;;;;2.53;1.40;;;23.40;53.90;;;;;;5011402;28;20041;-45
2022/07/31 05:51:33;;;;;;;2.72;1.92;;;23.40;54.00;;;;;;5025310;28;20045;-45
2022/07/31 05:54:00;;;;;;;2.00;1.55;;;23.40;54.10;;;;;;5022422;28;20068;-48
2022/07/31 05:56:58;;;;;;;1.70;1.60;;;23.40;54.20;;;;;;5025339;28;20578;-45
2022/07/31 05:59:33;;;;;;;1.55;1.45;;;23.40;54.20;;;;;;5009683;28;20363;-49
2022/07/31 06:02:00;;;;;;;2.10;1.70;;;23.50;54.40;;;;;;5005479;28;20054;-45
2022/07/31 06:04:31;;;;;;;1.98;1.75;;;23.50;54.50;;;;;;5014382;28;20041;-49
2022/07/31 06:06:58;;;;;;;3.30;1.83;;;23.40;54.40;;;;;;4991491;28;20457;-51
2022/07/31 06:09:25;;;;;;;2.67;1.60;;;23.40;54.40;;;;;;5010097;28;20130;-46
2022/07/31 06:11:52;;;;;;;2.00;1.60;;;23.40;54.50;;;;;;5003674;28;20156;-47
2022/07/31 06:14:22;;;;;;;2.05;1.40;;;23.40;54.70;;;;;;5014847;28;20128;-49
2022/07/31 06:17:18;;;;;;;1.30;1.27;;;23.40;54.80;;;;;;5003049;28;20178;-50
2022/07/31 06:19:48;;;;;;;1.98;1.42;;;23.40;54.90;;;;;;5011440;28;20094;-53
2022/07/31 06:22:17;;;;;;;2.10;1.40;;;23.50;55.20;;;;;;5007809;28;20786;-50
2022/07/31 06:24:51;;;;;;;2.28;1.38;;;23.40;55.30;;;;;;4995006;28;20099;-52
2022/07/31 06:27:21;;;;;;;2.17;1.98;;;23.40;55.90;;;;;;5001869;28;20046;-52
2022/07/31 06:30:04;;;;;;;1.70;1.35;;;23.40;55.60;;;;;;5003190;28;20661;-53
2022/07/31 06:32:35;;;;;;;4.35;1.50;;;23.40;55.70;;;;;;5017677;28;20096;-50
2022/07/31 06:35:05;;;;;;;2.22;1.50;;;23.40;55.80;;;;;;5026909;28;20037;-49
2022/07/31 06:37:46;;;;;;;1.70;1.58;;;23.40;56.10;;;;;;5006757;28;20060;-49
2022/07/31 06:40:15;;;;;;;2.03;1.73;;;23.40;56.00;;;;;;5008233;28;20046;-48
2022/07/31 06:43:06;;;;;;;1.35;1.25;;;23.40;56.10;;;;;;5027534;28;20533;-52
2022/07/31 06:46:12;;;;;;;1.40;1.30;;;23.40;56.20;;;;;;5006375;28;20065;-52
2022/07/31 06:48:57;;;;;;;1.13;1.02;;;23.50;56.20;;;;;;5012281;28;20079;-51
2022/07/31 06:51:24;;;;;;;4.63;2.20;;;23.50;56.30;;;;;;4987159;28;20055;-49
2022/07/31 06:54:03;;;;;;;1.60;1.40;;;23.50;56.20;;;;;;5013068;28;20042;-51
2022/07/31 06:56:31;;;;;;;2.50;1.52;;;23.50;56.60;;;;;;5017728;28;20057;-52
2022/07/31 06:58:58;;;;;;;2.40;1.35;;;23.50;56.40;;;;;;5021321;28;20033;-53
2022/07/31 07:01:25;;;;;;;1.50;1.40;;;23.50;56.60;;;;;;5003951;28;20045;-48
2022/07/31 07:03:53;;;;;;;2.08;1.80;;;23.50;56.70;;;;;;4986274;28;20038;-48
2022/07/31 07:06:20;;;;;;;2.97;1.98;;;23.60;56.70;;;;;;4995760;28;20041;-48
2022/07/31 07:08:47;;;;;;;1.55;1.30;;;23.60;56.70;;;;;;5005664;28;20042;-52
2022/07/31 07:11:17;;;;;;;3.88;1.27;;;23.60;56.80;;;;;;5012274;28;20041;-50
2022/07/31 07:13:45;;;;;;;2.00;1.50;;;23.60;57.00;;;;;;5007458;28;20046;-49
2022/07/31 07:16:16;;;;;;;3.20;1.80;;;23.60;56.90;;;;;;5008811;28;20084;-48
2022/07/31 07:18:43;;;;;;;2.42;1.63;;;23.70;56.90;;;;;;5007974;28;20052;-48
2022/07/31 07:21:10;;;;;;;2.88;1.58;;;23.70;56.80;;;;;;5016658;28;20421;-48
2022/07/31 07:23:38;;;;;;;2.22;1.60;;;23.70;57.20;;;;;;5008176;28;20120;-52
2022/07/31 07:26:18;;;;;;;3.03;1.60;;;23.80;57.20;;;;;;5013044;28;20045;-49
2022/07/31 07:28:45;;;;;;;1.90;1.80;;;23.80;57.60;;;;;;4996488;28;20422;-48
2022/07/31 07:31:12;;;;;;;1.70;1.60;;;23.90;58.00;;;;;;5014388;28;20046;-49
2022/07/31 07:33:39;;;;;;;2.00;1.52;;;23.90;57.80;;;;;;5029274;28;20042;-51
2022/07/31 07:36:19;;;;;;;3.03;1.90;;;24.00;58.00;;;;;;5007421;28;20064;-53
2022/07/31 07:39:08;;;;;;;1.73;1.33;;;24.00;58.50;;;;;;5016547;28;20045;-52
2022/07/31 07:41:37;;;;;;;2.35;1.85;;;24.10;57.80;;;;;;5005425;28;20053;-48
2022/07/31 07:44:06;;;;;;;2.80;1.65;;;24.20;57.80;;;;;;5011582;28;20045;-53
2022/07/31 07:46:33;;;;;;;2.03;1.83;;;24.20;57.80;;;;;;5004109;28;20055;-49
2022/07/31 07:49:05;;;;;;;1.65;1.52;;;24.30;58.00;;;;;;5022621;28;20578;-49
2022/07/31 07:51:37;;;;;;;3.03;1.50;;;24.30;58.00;;;;;;5001535;28;20438;-52
2022/07/31 07:54:42;;;;;;;1.70;1.60;;;24.30;57.60;;;;;;5022762;28;20045;-49
2022/07/31 07:57:28;;;;;;;2.78;1.55;;;24.50;57.10;;;;;;5022373;28;20048;-53
2022/07/31 08:00:09;;;;;;;2.63;1.50;;;24.50;57.70;;;;;;5029120;28;20044;-52
2022/07/31 08:02:43;;;;;;;1.77;1.67;;;24.50;57.50;;;;;;5030803;28;20092;-52
2022/07/31 08:05:12;;;;;;;2.13;1.90;;;24.50;57.00;;;;;;5009104;28;20049;-52
2022/07/31 08:07:40;;;;;;;2.05;1.63;;;24.60;56.70;;;;;;5011138;28;20038;-52
2022/07/31 08:10:29;;;;;;;3.15;1.48;;;24.60;56.80;;;;;;5008763;28;20433;-51
2022/07/31 08:13:04;;;;;;;2.25;1.27;;;24.60;57.00;;;;;;5007250;28;20048;-52
2022/07/31 08:15:50;;;;;;;2.50;1.73;;;24.60;57.00;;;;;;5032230;28;20138;-52
2022/07/31 08:18:31;;;;;;;2.88;1.52;;;24.60;57.20;;;;;;5010493;28;20054;-51
2022/07/31 08:20:58;;;;;;;1.73;1.63;;;24.70;57.20;;;;;;5023768;28;20061;-51
2022/07/31 08:23:26;;;;;;;1.88;1.77;;;24.70;57.40;;;;;;5012175;28;20034;-51
2022/07/31 08:25:52;;;;;;;1.90;1.55;;;24.80;57.00;;;;;;4987719;28;20046;-51
2022/07/31 08:28:24;;;;;;;2.63;1.50;;;24.90;56.80;;;;;;5011215;28;20045;-52
2022/07/31 08:30:52;;;;;;;2.45;2.20;;;25.00;57.00;;;;;;5010986;28;20057;-48
2022/07/31 08:33:20;;;;;;;2.15;1.98;;;25.10;56.30;;;;;;5009527;28;20069;-49
2022/07/31 08:35:57;;;;;;;1.40;1.30;;;25.30;56.10;;;;;;5007391;28;20057;-52
2022/07/31 08:38:24;;;;;;;2.40;1.83;;;25.30;56.20;;;;;;5014682;28;20060;-52
2022/07/31 08:41:14;;;;;;;2.20;1.92;;;25.40;55.80;;;;;;5030950;28;20127;-51
2022/07/31 08:43:40;;;;;;;2.03;1.88;;;25.60;55.50;;;;;;5024652;28;20069;-51
2022/07/31 08:46:28;;;;;;;3.75;1.80;;;25.60;55.00;;;;;;5008002;28;20045;-52
2022/07/31 08:48:56;;;;;;;3.05;1.70;;;25.80;54.90;;;;;;5009912;28;20037;-49
2022/07/31 08:51:23;;;;;;;1.65;1.55;;;25.80;54.60;;;;;;5005649;28;20079;-47
2022/07/31 08:54:27;;;;;;;2.10;1.50;;;25.90;54.40;;;;;;4991689;28;20054;-51
2022/07/31 08:56:54;;;;;;;1.10;1.10;;;26.00;54.50;;;;;;5002779;28;20502;-51
2022/07/31 08:59:21;;;;;;;2.05;1.65;;;26.10;54.50;;;;;;5027278;28;20044;-51
2022/07/31 09:01:50;;;;;;;2.13;1.50;;;26.10;54.50;;;;;;5007472;28;20042;-52
2022/07/31 09:04:19;;;;;;;2.08;1.63;;;26.20;54.60;;;;;;4998957;28;20124;-51
2022/07/31 09:06:46;;;;;;;1.30;1.20;;;26.20;54.20;;;;;;4995022;28;20080;-52
2022/07/31 09:09:15;;;;;;;2.40;1.33;;;26.30;54.00;;;;;;4999850;28;20050;-52
2022/07/31 09:11:49;;;;;;;2.95;1.40;;;26.40;53.70;;;;;;5020929;28;20038;-51
2022/07/31 09:14:53;;;;;;;1.80;1.52;;;26.50;53.40;;;;;;5028344;28;20155;-48
2022/07/31 09:17:31;;;;;;;1.70;1.35;;;26.50;53.30;;;;;;5009378;28;20095;-52
2022/07/31 09:19:59;;;;;;;1.48;1.38;;;26.40;52.90;;;;;;5006309;28;20044;-48
2022/07/31 09:22:31;;;;;;;1.85;1.52;;;26.50;53.30;;;;;;5014891;28;20046;-49
2022/07/31 09:25:10;;;;;;;1.85;1.45;;;26.50;53.40;;;;;;5007804;28;20077;-52
2022/07/31 09:27:38;;;;;;;1.48;1.27;;;26.50;53.20;;;;;;5014106;28;20128;-48
2022/07/31 09:30:06;;;;;;;3.13;2.38;;;26.50;53.20;;;;;;5003060;28;20076;-52
2022/07/31 09:32:52;;;;;;;1.90;1.33;;;26.60;53.20;;;;;;5000769;28;20060;-48
2022/07/31 09:35:47;;;;;;;1.88;1.63;;;26.60;53.20;;;;;;5023184;28;20045;-52
2022/07/31 09:38:14;;;;;;;2.45;1.80;;;26.80;53.30;;;;;;5008997;28;20033;-52
2022/07/31 09:41:16;;;;;;;1.83;1.73;;;26.90;53.30;;;;;;5018672;28;20061;-51
2022/07/31 09:44:05;;;;;;;1.63;1.52;;;27.00;52.90;;;;;;4999100;28;20128;-51
2022/07/31 09:46:42;;;;;;;2.00;1.85;;;27.20;52.90;;;;;;5005831;28;20042;-51
2022/07/31 09:49:09;;;;;;;2.43;1.93;;;27.30;52.30;;;;;;5029759;28;20041;-52
2022/07/31 09:51:39;;;;;;;1.50;1.40;;;27.40;51.90;;;;;;5010210;28;20358;-52
2022/07/31 09:54:18;;;;;;;1.75;1.65;;;27.50;52.20;;;;;;5005614;28;20529;-52
2022/07/31 09:57:12;;;;;;;3.25;1.67;;;27.60;52.00;;;;;;5016657;28;20073;-52
2022/07/31 09:59:42;;;;;;;2.60;1.45;;;27.70;51.50;;;;;;4996481;28;20761;-49
2022/07/31 10:02:14;;;;;;;1.35;1.25;;;27.80;51.50;;;;;;5011846;28;20072;-52
2022/07/31 10:04:45;;;;;;;1.95;1.52;;;28.00;51.10;;;;;;5024925;28;20041;-48
2022/07/31 10:07:16;;;;;;;1.83;1.50;;;28.00;50.70;;;;;;5005239;28;20049;-48
2022/07/31 10:10:02;;;;;;;2.78;1.80;;;28.10;50.60;;;;;;5013779;28;20451;-47
2022/07/31 10:12:41;;;;;;;3.97;1.85;;;28.20;50.40;;;;;;5007470;28;20125;-54
2022/07/31 10:15:13;;;;;;;1.85;1.30;;;28.30;50.30;;;;;;5012602;28;20053;-48
2022/07/31 10:17:45;;;;;;;2.28;1.60;;;28.30;50.20;;;;;;5008531;28;20088;-48
2022/07/31 10:20:22;;;;;;;1.95;1.77;;;28.40;49.90;;;;;;5006715;28;20049;-50
2022/07/31 10:23:15;;;;;;;2.08;1.92;;;28.50;49.30;;;;;;5022334;28;20136;-48
2022/07/31 10:25:55;;;;;;;1.92;1.60;;;28.50;49.20;;;;;;4998659;28;20041;-51
2022/07/31 10:28:23;;;;;;;1.95;1.58;;;28.50;49.20;;;;;;5012585;28;20046;-49
2022/07/31 10:30:51;;;;;;;2.80;2.00;;;28.50;49.40;;;;;;4999817;28;20072;-50
2022/07/31 10:33:20;;;;;;;2.80;1.63;;;28.50;49.50;;;;;;5013150;28;20042;-50
2022/07/31 10:36:36;;;;;;;2.00;1.90;;;28.50;49.50;;;;;;5023358;28;20077;-47
2022/07/31 10:39:34;;;;;;;2.45;2.22;;;28.60;49.30;;;;;;5011092;28;20092;-52
2022/07/31 10:42:54;;;;;;;2.97;1.70;;;28.70;49.00;;;;;;5019345;28;20052;-50
2022/07/31 10:45:22;;;;;;;2.08;1.98;;;28.70;49.00;;;;;;5005127;28;20061;-47
2022/07/31 10:48:01;;;;;;;1.80;1.70;;;28.80;49.20;;;;;;5007862;28;20049;-50
2022/07/31 10:51:06;;;;;;;4.15;1.90;;;28.80;49.00;;;;;;5008562;28;20045;-48
2022/07/31 10:54:00;;;;;;;1.98;1.70;;;28.90;49.30;;;;;;5000941;28;20074;-49
2022/07/31 10:57:01;;;;;;;2.55;1.67;;;29.00;49.10;;;;;;4997550;28;20107;-52
2022/07/31 10:59:39;;;;;;;1.75;1.65;;;29.10;49.00;;;;;;5021728;28;20068;-51
2022/07/31 11:02:34;;;;;;;2.65;1.95;;;29.20;48.30;;;;;;5021190;28;20164;-51
2022/07/31 11:05:22;;;;;;;3.60;1.90;;;29.40;48.20;;;;;;4995808;28;20105;-52
2022/07/31 11:08:07;;;;;;;2.13;1.92;;;29.40;47.80;;;;;;5019565;28;20064;-50
2022/07/31 11:10:50;;;;;;;1.73;1.63;;;29.40;47.60;;;;;;5011376;28;20048;-52
2022/07/31 11:13:50;;;;;;;2.92;1.55;;;29.50;47.60;;;;;;5017218;28;20038;-50
2022/07/31 11:16:50;;;;;;;1.88;1.77;;;29.40;47.20;;;;;;5018044;28;20056;-52
2022/07/31 11:19:40;;;;;;;2.35;2.15;;;29.40;47.30;;;;;;5027819;28;20049;-49
2022/07/31 11:22:14;;;;;;;2.72;2.13;;;29.40;47.80;;;;;;5028138;28;20157;-50
2022/07/31 11:24:59;;;;;;;2.20;2.10;;;29.50;47.40;;;;;;5019847;28;20042;-51
2022/07/31 11:27:30;;;;;;;2.95;2.35;;;29.60;47.80;;;;;;5026850;28;20037;-48
2022/07/31 11:30:07;;;;;;;2.50;2.30;;;29.60;47.00;;;;;;5030076;28;20042;-52
2022/07/31 11:32:40;;;;;;;2.38;2.22;;;29.70;46.90;;;;;;5019206;28;20037;-49
2022/07/31 11:35:07;;;;;;;2.47;2.13;;;29.70;46.80;;;;;;5012519;28;20510;-50
2022/07/31 11:37:34;;;;;;;2.10;1.90;;;29.80;46.60;;;;;;5025781;28;20041;-48
2022/07/31 11:40:19;;;;;;;2.30;2.10;;;29.80;47.00;;;;;;5022309;28;20096;-51
2022/07/31 11:42:53;;;;;;;3.17;2.35;;;29.80;46.60;;;;;;5030020;28;20041;-48
2022/07/31 11:45:51;;;;;;;3.17;2.22;;;29.80;46.40;;;;;;5026294;28;20116;-50
2022/07/31 11:48:20;;;;;;;2.42;2.22;;;29.90;46.40;;;;;;5026896;28;20091;-48
2022/07/31 11:50:48;;;;;;;2.47;2.28;;;29.90;46.40;;;;;;5019304;28;20046;-50
2022/07/31 11:53:17;;;;;;;2.28;2.08;;;29.90;45.80;;;;;;5009624;28;20138;-52
2022/07/31 11:55:46;;;;;;;2.53;2.33;;;30.00;45.60;;;;;;5010199;28;20477;-51
2022/07/31 11:58:15;;;;;;;2.75;2.55;;;29.90;45.90;;;;;;5027502;28;20046;-52
2022/07/31 12:00:49;;;;;;;4.03;2.83;;;29.90;45.90;;;;;;5026665;28;20099;-49
2022/07/31 12:03:21;;;;;;;2.70;2.50;;;29.90;46.00;;;;;;5030147;28;20038;-53
2022/07/31 12:05:51;;;;;;;2.45;2.25;;;29.90;46.20;;;;;;5020502;28;20440;-48
2022/07/31 12:08:18;;;;;;;2.50;2.30;;;29.90;46.20;;;;;;5031190;28;20556;-51
2022/07/31 12:10:47;;;;;;;2.70;2.50;;;30.00;46.60;;;;;;5025165;28;20038;-49
2022/07/31 12:13:19;;;;;;;2.72;2.15;;;30.10;46.10;;;;;;5021090;28;20096;-51
2022/07/31 12:16:08;;;;;;;2.78;2.58;;;30.20;46.10;;;;;;5030197;28;20038;-49
2022/07/31 12:18:47;;;;;;;4.25;2.45;;;30.30;45.30;;;;;;5027629;28;20560;-50
2022/07/31 12:21:15;;;;;;;3.22;2.50;;;30.40;45.30;;;;;;5021119;28;20095;-49
2022/07/31 12:23:48;;;;;;;2.22;2.13;;;30.50;45.30;;;;;;5019409;28;20064;-49
2022/07/31 12:26:22;;;;;;;3.05;2.67;;;30.60;45.10;;;;;;5020892;28;20425;-49
2022/07/31 12:28:57;;;;;;;2.53;2.33;;;30.70;45.20;;;;;;5030282;28;20034;-48
2022/07/31 12:31:24;;;;;;;2.70;2.50;;;30.70;44.30;;;;;;5030432;28;20049;-48
2022/07/31 12:33:51;;;;;;;3.10;2.65;;;30.70;44.50;;;;;;5031991;28;20387;-49
2022/07/31 12:36:18;;;;;;;2.88;2.55;;;30.80;44.40;;;;;;5020683;28;20034;-50
2022/07/31 12:38:56;;;;;;;2.20;2.00;;;30.70;44.20;;;;;;5032280;28;20041;-48
2022/07/31 12:41:23;;;;;;;2.88;2.63;;;30.80;44.70;;;;;;5023277;28;20501;-48
2022/07/31 12:43:50;;;;;;;2.22;2.13;;;30.80;44.60;;;;;;5023751;28;20041;-50
2022/07/31 12:46:34;;;;;;;2.20;2.10;;;30.90;44.70;;;;;;5020938;28;20045;-46
2022/07/31 12:49:05;;;;;;;2.10;2.00;;;31.10;45.00;;;;;;5032662;28;20068;-51
2022/07/31 12:51:32;;;;;;;2.67;2.05;;;31.10;44.30;;;;;;5023247;28;20046;-48
2022/07/31 12:54:16;;;;;;;1.88;1.77;;;31.30;44.00;;;;;;5028158;28;20045;-49
2022/07/31 12:56:44;;;;;;;2.08;1.60;;;31.40;43.50;;;;;;5023260;28;20481;-48
2022/07/31 12:59:11;;;;;;;1.58;1.48;;;31.50;43.30;;;;;;5021076;28;20045;-47
2022/07/31 13:01:38;;;;;;;1.95;1.85;;;31.60;43.40;;;;;;5022026;28;20135;-50
2022/07/31 13:04:05;;;;;;;2.80;1.92;;;31.60;43.00;;;;;;5021548;28;20091;-48
2022/07/31 13:06:44;;;;;;;1.90;1.80;;;31.80;43.00;;;;;;5022552;28;20073;-51
2022/07/31 13:09:11;;;;;;;2.15;2.00;;;31.80;43.30;;;;;;5020680;28;20067;-50
2022/07/31 13:11:37;;;;;;;3.33;2.05;;;32.00;43.10;;;;;;5023310;28;20100;-50
2022/07/31 13:14:19;;;;;;;2.05;1.52;;;32.10;42.70;;;;;;5006385;28;20041;-52
2022/07/31 13:16:47;;;;;;;5.97;1.52;;;32.30;42.00;;;;;;5021581;28;20030;-48
2022/07/31 13:19:16;;;;;;;1.88;1.67;;;32.40;41.90;;;;;;5020605;28;20030;-49
2022/07/31 13:21:43;;;;;;;2.45;2.25;;;32.40;41.70;;;;;;5031290;28;20041;-52
2022/07/31 13:24:19;;;;;;;2.00;1.75;;;32.40;41.30;;;;;;5021932;28;20049;-53
2022/07/31 13:26:48;;;;;;;1.85;1.70;;;32.40;41.10;;;;;;5027361;28;20044;-52